Time;durP1;ratioP1;P1;durP2;ratioP2;P2;SDS_P1;SDS_P2;PMS_P1;PMS_P2;Temp;Humidity;BMP_temperature;BMP_pressure;BME280_temperature;BME280_humidity;BME280_pressure;Samples;Min_cycle;Max_cycle;Signal;HPM_P1;HPM_P2
2022/03/21 00:00:59;;;;;;;59.47;37.13;;;4.20;99.90;;;;;;5078418;28;20104;-71
2022/03/21 00:03:26;;;;;;;;;;;4.20;99.90;;;;;;5078068;28;20025;-72
2022/03/21 00:05:52;;;;;;;53.80;34.63;;;4.20;99.90;;;;;;5061198;28;19916;-72
2022/03/21 00:08:22;;;;;;;57.40;36.38;;;4.10;99.90;;;;;;5078324;28;20033;-70
2022/03/21 00:10:50;;;;;;;54.92;36.08;;;4.10;99.90;;;;;;5077374;28;20021;-71
2022/03/21 00:13:16;;;;;;;59.05;36.95;;;4.10;99.90;;;;;;5060532;28;20025;-72
2022/03/21 00:15:43;;;;;;;59.50;37.17;;;4.10;99.90;;;;;;5077349;28;20035;-72
2022/03/21 00:18:13;;;;;;;57.15;37.55;;;4.00;99.90;;;;;;5060385;28;20292;-72
2022/03/21 00:20:43;;;;;;;56.25;36.35;;;4.00;99.90;;;;;;5077542;28;20028;-71
2022/03/21 00:23:10;;;;;;;57.13;35.10;;;4.00;99.90;;;;;;5078822;28;20504;-72
2022/03/21 00:25:37;;;;;;;55.95;35.17;;;4.00;99.90;;;;;;5078539;28;20032;-71
2022/03/21 00:28:04;;;;;;;59.35;36.00;;;3.90;99.90;;;;;;5078387;28;20128;-72
2022/03/21 00:30:31;;;;;;;59.35;36.88;;;3.80;99.90;;;;;;5061017;28;20078;-72
2022/03/21 00:32:57;;;;;;;55.85;35.70;;;3.80;99.90;;;;;;5060476;28;20098;-73
2022/03/21 00:35:23;;;;;;;56.10;36.92;;;3.80;99.90;;;;;;5078034;28;20050;-72
2022/03/21 00:37:49;;;;;;;59.88;37.08;;;3.80;99.90;;;;;;5077195;28;20040;-72
2022/03/21 00:40:17;;;;;;;56.60;35.42;;;3.70;99.90;;;;;;5060410;28;20040;-73
2022/03/21 00:42:45;;;;;;;57.30;37.03;;;3.70;99.90;;;;;;5076816;28;20033;-72
2022/03/21 00:45:14;;;;;;;56.78;35.88;;;3.60;99.90;;;;;;5060513;28;20060;-73
2022/03/21 00:47:42;;;;;;;55.78;35.72;;;3.60;99.90;;;;;;5077830;28;20071;-72
2022/03/21 00:50:10;;;;;;;58.28;37.40;;;3.70;99.90;;;;;;5077775;28;20024;-72
2022/03/21 00:52:46;;;;;;;55.60;35.90;;;3.70;99.90;;;;;;5076763;28;20043;-73
2022/03/21 00:55:14;;;;;;;57.58;36.67;;;3.60;99.90;;;;;;5060280;28;20068;-72
2022/03/21 00:57:42;;;;;;;55.17;35.33;;;3.60;99.90;;;;;;5060378;28;20029;-72
2022/03/21 01:00:20;;;;;;;58.83;38.22;;;3.50;99.90;;;;;;5060441;28;20056;-72
2022/03/21 01:02:46;;;;;;;56.83;36.38;;;3.50;99.90;;;;;;5060092;28;20418;-72
2022/03/21 01:05:12;;;;;;;57.83;36.05;;;3.50;99.90;;;;;;5077677;28;20042;-72
2022/03/21 01:07:40;;;;;;;62.08;38.90;;;3.40;99.90;;;;;;5060448;28;20384;-72
2022/03/21 01:10:07;;;;;;;59.28;38.05;;;3.50;99.90;;;;;;5076650;28;20112;-73
2022/03/21 01:12:33;;;;;;;59.88;37.53;;;3.40;99.90;;;;;;5078012;28;20039;-72
2022/03/21 01:15:00;;;;;;;60.88;37.33;;;3.40;99.90;;;;;;5060270;28;20463;-73
2022/03/21 01:17:26;;;;;;;58.85;37.63;;;3.30;99.90;;;;;;5077227;28;20032;-73
2022/03/21 01:19:52;;;;;;;57.58;37.67;;;3.20;99.90;;;;;;5076681;28;20045;-73
2022/03/21 01:22:18;;;;;;;61.45;38.00;;;3.30;99.90;;;;;;5077282;28;20056;-72
2022/03/21 01:24:44;;;;;;;63.38;38.45;;;3.30;99.90;;;;;;5077457;28;20063;-72
2022/03/21 01:27:10;;;;;;;59.05;37.20;;;3.40;99.90;;;;;;5060226;28;20033;-71
2022/03/21 01:29:37;;;;;;;62.92;38.92;;;3.30;99.90;;;;;;5078765;28;20025;-71
2022/03/21 01:32:03;;;;;;;59.55;38.30;;;3.30;99.90;;;;;;5080789;28;20293;-71
2022/03/21 01:34:29;;;;;;;66.68;39.97;;;3.20;99.90;;;;;;5081662;28;20146;-72
2022/03/21 01:36:56;;;;;;;58.70;37.50;;;3.10;99.90;;;;;;5080916;28;20025;-72
2022/03/21 01:39:25;;;;;;;59.55;37.15;;;3.10;99.90;;;;;;5080287;28;20101;-72
2022/03/21 01:41:51;;;;;;;63.15;38.22;;;3.10;99.90;;;;;;5081358;28;20077;-72
2022/03/21 01:44:18;;;;;;;62.00;37.95;;;3.10;99.90;;;;;;5047473;28;20063;-72
2022/03/21 01:46:44;;;;;;;60.33;37.92;;;3.10;99.90;;;;;;5081419;28;20048;-72
2022/03/21 01:49:10;;;;;;;60.70;38.60;;;3.10;99.90;;;;;;5080232;28;20047;-72
2022/03/21 01:51:38;;;;;;;61.75;38.67;;;3.10;99.90;;;;;;5064348;28;20036;-73
2022/03/21 01:56:50;;;;;;;62.53;38.80;;;3.00;99.90;;;;;;5081223;28;20274;-72
2022/03/21 01:59:17;;;;;;;64.50;38.90;;;3.00;99.90;;;;;;5080846;28;20028;-72
2022/03/21 02:01:43;;;;;;;61.28;38.47;;;3.00;99.90;;;;;;5080863;28;20535;-71
2022/03/21 02:04:10;;;;;;;60.85;38.30;;;2.90;99.90;;;;;;5080989;28;20051;-71
2022/03/21 02:06:36;;;;;;;65.63;39.72;;;2.90;99.90;;;;;;5081276;28;20070;-71
2022/03/21 02:09:04;;;;;;;64.60;39.33;;;2.80;99.90;;;;;;5081135;28;20040;-71
2022/03/21 02:11:32;;;;;;;63.92;38.88;;;2.80;99.90;;;;;;5080808;28;20376;-71
2022/03/21 02:14:00;;;;;;;64.30;39.28;;;2.90;99.90;;;;;;5063371;28;20056;-71
2022/03/21 02:16:28;;;;;;;60.35;38.95;;;2.90;99.90;;;;;;5080623;28;20044;-71
2022/03/21 02:18:55;;;;;;;63.20;40.00;;;2.90;99.90;;;;;;5080591;28;20062;-71
2022/03/21 02:21:31;;;;;;;68.68;40.75;;;2.90;99.90;;;;;;5079847;28;20033;-71
2022/03/21 02:24:07;;;;;;;64.18;39.80;;;2.80;99.90;;;;;;5079502;28;20300;-72
2022/03/21 02:26:35;;;;;;;65.75;39.40;;;2.70;99.90;;;;;;5062964;28;20048;-71
2022/03/21 02:29:05;;;;;;;67.75;40.33;;;2.70;99.90;;;;;;5080401;28;20071;-72
2022/03/21 02:31:34;;;;;;;66.15;40.67;;;2.60;99.90;;;;;;5080425;28;20028;-71
2022/03/21 02:34:01;;;;;;;68.88;40.47;;;2.60;99.90;;;;;;5079149;28;20029;-71
2022/03/21 02:36:28;;;;;;;68.93;41.50;;;2.70;99.90;;;;;;5062854;28;20029;-72
2022/03/21 02:38:57;;;;;;;68.07;42.17;;;2.60;99.90;;;;;;5080149;28;20064;-72
2022/03/21 02:41:23;;;;;;;72.00;41.55;;;2.60;99.90;;;;;;5079746;28;20052;-73
2022/03/21 02:43:57;;;;;;;67.90;40.90;;;2.60;99.90;;;;;;5078950;28;20032;-72
2022/03/21 02:46:24;;;;;;;66.90;40.22;;;2.60;99.90;;;;;;5079729;28;20039;-72
2022/03/21 02:48:52;;;;;;;70.20;40.13;;;2.60;99.90;;;;;;5078937;28;20039;-71
2022/03/21 02:51:20;;;;;;;66.13;41.10;;;2.60;99.90;;;;;;5045692;28;20033;-71
2022/03/21 02:53:48;;;;;;;66.55;40.38;;;2.60;99.90;;;;;;5079704;28;20063;-72
2022/03/21 02:56:15;;;;;;;68.00;41.78;;;2.60;99.90;;;;;;5079946;28;20052;-71
2022/03/21 02:58:41;;;;;;;64.40;40.13;;;2.60;99.90;;;;;;5080028;28;20079;-72
2022/03/21 03:01:12;;;;;;;66.93;40.70;;;2.50;99.90;;;;;;5062060;28;20056;-72
2022/03/21 03:03:41;;;;;;;65.90;41.17;;;2.50;99.90;;;;;;5062575;28;20064;-72
2022/03/21 03:06:07;;;;;;;68.32;41.50;;;2.40;99.90;;;;;;5078855;28;20025;-72
2022/03/21 03:08:34;;;;;;;74.93;43.13;;;2.40;99.90;;;;;;5062007;28;20033;-72
2022/03/21 03:11:01;;;;;;;69.30;42.65;;;2.40;99.90;;;;;;5078940;28;20456;-72
2022/03/21 03:13:27;;;;;;;73.55;43.28;;;2.40;99.90;;;;;;5079174;28;20052;-72
2022/03/21 03:15:53;;;;;;;65.70;41.85;;;2.40;99.90;;;;;;5079509;28;20024;-73
2022/03/21 03:18:19;;;;;;;76.07;43.10;;;2.40;99.90;;;;;;5079304;28;20119;-72
2022/03/21 03:20:53;;;;;;;73.32;43.25;;;2.40;99.90;;;;;;5078273;28;20060;-73
2022/03/21 03:23:20;;;;;;;70.20;41.97;;;2.30;99.90;;;;;;5079083;28;20060;-72
2022/03/21 03:25:46;;;;;;;69.63;42.83;;;2.30;99.90;;;;;;5079375;28;20288;-72
2022/03/21 03:28:21;;;;;;;71.32;42.28;;;2.30;99.90;;;;;;5078566;28;20403;-72
2022/03/21 03:30:47;;;;;;;75.35;42.65;;;2.40;99.90;;;;;;5078180;28;20047;-72
2022/03/21 03:33:13;;;;;;;72.80;42.58;;;2.30;99.90;;;;;;5078767;28;20097;-72
2022/03/21 03:35:40;;;;;;;70.70;42.58;;;2.30;99.90;;;;;;5078414;28;20115;-72
2022/03/21 03:38:06;;;;;;;72.15;42.60;;;2.30;99.90;;;;;;5045004;28;20419;-72
2022/03/21 03:40:31;;;;;;;71.25;43.05;;;2.30;99.90;;;;;;5041343;28;20065;-73
2022/03/21 03:42:57;;;;;;;70.03;42.58;;;2.30;99.90;;;;;;5057870;28;20167;-73
2022/03/21 03:45:25;;;;;;;74.20;43.45;;;2.30;99.90;;;;;;5041961;28;20127;-73
2022/03/21 03:47:51;;;;;;;72.07;43.25;;;2.30;99.90;;;;;;5057750;28;20309;-72
2022/03/21 03:50:18;;;;;;;74.47;45.28;;;2.30;99.90;;;;;;5058365;28;20025;-72
2022/03/21 03:52:46;;;;;;;75.18;45.67;;;2.30;99.90;;;;;;5040227;28;20037;-73
2022/03/21 03:55:17;;;;;;;77.10;44.88;;;2.30;99.90;;;;;;5041584;28;20033;-72
2022/03/21 03:57:44;;;;;;;73.50;44.25;;;2.30;99.90;;;;;;5057936;28;20036;-73
2022/03/21 04:00:11;;;;;;;80.05;45.78;;;2.30;99.90;;;;;;5057391;28;20107;-72
2022/03/21 04:05:25;;;;;;;78.30;45.45;;;2.30;99.90;;;;;;5057437;28;20036;-72
2022/03/21 04:07:52;;;;;;;74.80;43.38;;;2.20;99.90;;;;;;5057332;28;20063;-71
2022/03/21 04:10:18;;;;;;;74.18;45.03;;;2.20;99.90;;;;;;5040770;28;20025;-72
2022/03/21 04:12:44;;;;;;;75.53;44.40;;;2.20;99.90;;;;;;5057910;28;20043;-72
2022/03/21 04:15:10;;;;;;;76.10;45.28;;;2.20;99.90;;;;;;5058019;28;20047;-72
2022/03/21 04:17:36;;;;;;;74.03;45.45;;;2.20;99.90;;;;;;5058307;28;20061;-73
2022/03/21 04:20:05;;;;;;;73.47;44.03;;;2.20;99.90;;;;;;5040367;28;20071;-73
2022/03/21 04:22:34;;;;;;;70.35;44.10;;;2.10;99.90;;;;;;5056962;28;20060;-72
2022/03/21 04:25:00;;;;;;;74.93;45.30;;;2.10;99.90;;;;;;5057719;28;20301;-72
2022/03/21 04:27:26;;;;;;;75.38;44.67;;;2.20;99.90;;;;;;5057254;28;20029;-72
2022/03/21 04:29:52;;;;;;;74.63;45.00;;;2.10;99.90;;;;;;5057951;28;20025;-72
2022/03/21 04:32:18;;;;;;;74.63;45.97;;;2.20;99.90;;;;;;5040307;28;20029;-71
2022/03/21 04:34:44;;;;;;;73.43;44.83;;;2.10;99.90;;;;;;5057041;28;20029;-72
2022/03/21 04:37:10;;;;;;;78.47;44.95;;;2.10;99.90;;;;;;5057577;28;20126;-71
2022/03/21 04:39:36;;;;;;;76.18;44.95;;;2.00;99.90;;;;;;5069771;28;20045;-71
2022/03/21 04:42:02;;;;;;;76.07;44.08;;;2.00;99.90;;;;;;5076643;28;20107;-71
2022/03/21 04:44:28;;;;;;;74.97;44.88;;;2.00;99.90;;;;;;5060113;28;20035;-71
2022/03/21 04:46:54;;;;;;;76.88;45.13;;;2.00;99.90;;;;;;5076647;28;20452;-72
2022/03/21 04:49:19;;;;;;;82.43;46.60;;;2.00;99.90;;;;;;5077354;28;20043;-72
2022/03/21 04:51:45;;;;;;;77.20;46.58;;;2.00;99.90;;;;;;5076769;28;20300;-72
2022/03/21 04:54:11;;;;;;;76.35;46.53;;;2.10;99.90;;;;;;5076588;28;20032;-71
2022/03/21 04:56:36;;;;;;;76.57;44.90;;;2.00;99.90;;;;;;5077057;28;20024;-72
2022/03/21 04:59:02;;;;;;;78.90;45.95;;;2.00;99.90;;;;;;5059652;28;20064;-73
2022/03/21 05:01:28;;;;;;;79.68;46.88;;;2.10;99.90;;;;;;5076433;28;20090;-72
2022/03/21 05:03:55;;;;;;;77.47;47.00;;;2.10;99.90;;;;;;5076597;28;20033;-72
2022/03/21 05:06:20;;;;;;;82.43;47.63;;;2.00;99.90;;;;;;5076485;28;20308;-71
2022/03/21 05:08:46;;;;;;;75.45;43.97;;;2.00;99.90;;;;;;5076128;28;20054;-72
2022/03/21 05:11:12;;;;;;;76.28;45.25;;;2.00;99.90;;;;;;5059739;28;20029;-72
2022/03/21 05:13:38;;;;;;;80.18;45.67;;;2.00;99.90;;;;;;5077178;28;20061;-72
2022/03/21 05:16:05;;;;;;;74.18;44.58;;;2.00;99.90;;;;;;5043166;28;20123;-72
2022/03/21 05:18:34;;;;;;;81.35;46.83;;;2.00;99.90;;;;;;5059682;28;20044;-72
2022/03/21 05:21:01;;;;;;;78.97;44.88;;;1.90;99.90;;;;;;5076232;28;20111;-72
2022/03/21 05:31:40;;;;;;;75.63;44.40;;;2.00;99.90;;;;;;5076086;28;20032;-72
2022/03/21 05:36:53;;;;;;;75.30;44.45;;;2.00;99.90;;;;;;5076096;28;20037;-72
2022/03/21 05:39:19;;;;;;;73.65;43.58;;;2.00;99.90;;;;;;5059464;28;20392;-72
2022/03/21 05:41:46;;;;;;;76.28;45.13;;;1.90;99.90;;;;;;5076096;28;20304;-71
2022/03/21 05:44:11;;;;;;;75.95;45.22;;;2.00;99.90;;;;;;5076195;28;20120;-72
2022/03/21 05:46:37;;;;;;;80.68;46.40;;;2.00;99.90;;;;;;5076083;28;20431;-72
2022/03/21 05:49:04;;;;;;;84.20;47.05;;;1.90;99.90;;;;;;5076492;28;20029;-73
2022/03/21 05:51:32;;;;;;;77.88;46.65;;;1.90;99.90;;;;;;5076496;28;20036;-72
2022/03/21 05:54:03;;;;;;;83.60;47.08;;;1.90;99.90;;;;;;5075856;28;20135;-72
2022/03/21 05:56:29;;;;;;;79.32;46.30;;;1.90;99.90;;;;;;5076761;28;20082;-72
2022/03/21 05:58:56;;;;;;;75.45;44.05;;;1.90;99.90;;;;;;5076385;28;20396;-73
2022/03/21 06:01:23;;;;;;;78.50;46.25;;;1.90;99.90;;;;;;5075756;28;20052;-73
2022/03/21 06:03:52;;;;;;;77.13;45.80;;;1.90;99.90;;;;;;5075670;28;20043;-72
2022/03/21 06:06:18;;;;;;;77.30;44.00;;;1.90;99.90;;;;;;5059507;28;20047;-71
2022/03/21 06:08:44;;;;;;;76.43;45.55;;;1.90;99.90;;;;;;5075734;28;20301;-72
2022/03/21 06:11:12;;;;;;;74.00;45.53;;;1.90;99.90;;;;;;5076057;28;20043;-72
2022/03/21 06:13:43;;;;;;;77.40;45.08;;;1.90;99.90;;;;;;5077331;28;20043;-72
2022/03/21 06:16:10;;;;;;;53.08;31.42;;;2.00;99.90;;;;;;5079814;28;20020;-72
2022/03/21 06:18:38;;;;;;;76.57;45.10;;;2.00;99.90;;;;;;5079834;28;20029;-72
2022/03/21 06:21:05;;;;;;;75.75;44.85;;;2.00;99.90;;;;;;5079851;28;20035;-73
2022/03/21 06:23:32;;;;;;;76.60;43.40;;;2.10;99.90;;;;;;5079397;28;20116;-71
2022/03/21 06:25:58;;;;;;;77.82;45.50;;;2.10;99.90;;;;;;5080741;28;20116;-71
2022/03/21 06:28:26;;;;;;;77.28;45.80;;;2.20;99.90;;;;;;5063044;28;20354;-73
2022/03/21 06:30:53;;;;;;;82.60;46.35;;;2.30;99.90;;;;;;5079448;28;20029;-72
2022/03/21 06:33:24;;;;;;;79.03;45.17;;;2.30;99.90;;;;;;5063204;28;20072;-72
2022/03/21 06:35:50;;;;;;;74.95;43.90;;;2.40;99.90;;;;;;5079457;28;20029;-71
2022/03/21 06:38:16;;;;;;;74.95;44.42;;;2.40;99.90;;;;;;5062300;28;20036;-71
2022/03/21 06:40:43;;;;;;;77.13;45.47;;;2.50;99.90;;;;;;5080164;28;20032;-71
2022/03/21 06:43:10;;;;;;;73.38;44.40;;;2.50;99.90;;;;;;5078960;28;20027;-71
2022/03/21 06:45:36;;;;;;;77.13;45.80;;;2.60;99.90;;;;;;5079653;28;20079;-71
2022/03/21 06:48:02;;;;;;;73.50;42.95;;;2.60;99.90;;;;;;5079814;28;20112;-72
2022/03/21 06:50:28;;;;;;;76.03;44.90;;;2.60;99.90;;;;;;5062234;28;20033;-72
2022/03/21 06:52:54;;;;;;;75.18;44.63;;;2.80;99.90;;;;;;5079279;28;20028;-70
2022/03/21 06:55:25;;;;;;;75.45;45.63;;;2.90;99.90;;;;;;5079626;28;20044;-73
2022/03/21 06:57:51;;;;;;;76.65;46.97;;;2.90;99.90;;;;;;5079148;28;20101;-72
2022/03/21 07:00:17;;;;;;;76.57;46.28;;;3.00;99.90;;;;;;5080138;28;20384;-72
2022/03/21 07:02:44;;;;;;;74.10;45.35;;;3.20;99.90;;;;;;5079259;28;20392;-73
2022/03/21 07:05:10;;;;;;;74.68;44.47;;;3.40;99.90;;;;;;5079489;28;20020;-72
2022/03/21 07:07:37;;;;;;;73.60;43.67;;;3.50;99.90;;;;;;5079259;28;20032;-73
2022/03/21 07:10:05;;;;;;;67.68;42.63;;;3.60;99.90;;;;;;5078635;28;20043;-72
2022/03/21 07:12:34;;;;;;;71.82;43.95;;;3.80;99.90;;;;;;5045345;28;20086;-71
2022/03/21 07:15:00;;;;;;;70.22;41.58;;;3.90;99.90;;;;;;5078472;28;20032;-73
2022/03/21 07:17:26;;;;;;;66.20;41.15;;;4.10;99.90;;;;;;5078755;28;20090;-70
2022/03/21 07:19:52;;;;;;;62.80;41.13;;;4.20;99.90;;;;;;5078774;28;20033;-71
2022/03/21 07:22:18;;;;;;;61.80;40.53;;;4.30;99.90;;;;;;5078418;28;20112;-74
2022/03/21 07:24:44;;;;;;;60.53;38.58;;;4.40;99.90;;;;;;5045224;28;20028;-72
2022/03/21 07:27:12;;;;;;;62.80;39.25;;;4.60;99.90;;;;;;5077449;28;20029;-71
2022/03/21 07:29:38;;;;;;;55.90;37.03;;;4.70;99.90;;;;;;5061744;28;20037;-72
2022/03/21 07:32:04;;;;;;;58.13;36.28;;;4.80;99.90;;;;;;5061405;28;20478;-72
2022/03/21 07:34:30;;;;;;;53.05;33.95;;;5.00;99.90;;;;;;5078553;28;20103;-72
2022/03/21 07:36:56;;;;;;;50.75;33.15;;;6.40;99.90;;;;;;5078762;28;20052;-72
2022/03/21 07:39:22;;;;;;;43.95;29.67;;;6.30;99.90;;;;;;5061261;28;20151;-71
2022/03/21 07:41:48;;;;;;;47.15;30.38;;;6.20;99.90;;;;;;5078579;28;20091;-72
2022/03/21 07:47:17;;;;;;;44.40;29.08;;;6.20;99.90;;;;;;5077721;28;20102;-72
2022/03/21 07:47:17;;;;;;;42.90;28.73;;;6.20;99.90;;;;;;5064130;28;20160;-71
2022/03/21 07:49:46;;;;;;;42.17;26.25;;;6.40;99.90;;;;;;5078842;28;20341;-72
2022/03/21 07:52:13;;;;;;;39.80;26.70;;;6.70;99.90;;;;;;5061441;28;20044;-72
2022/03/21 07:54:42;;;;;;;38.25;25.42;;;6.70;99.90;;;;;;5077635;28;20024;-72
2022/03/21 07:57:08;;;;;;;45.75;26.75;;;6.80;99.90;;;;;;5061544;28;20079;-72
2022/03/21 07:59:35;;;;;;;43.53;26.20;;;6.80;99.90;;;;;;5077476;28;20064;-72
2022/03/21 08:02:03;;;;;;;34.05;23.02;;;6.80;99.90;;;;;;5077335;28;20115;-72
2022/03/21 08:04:31;;;;;;;35.38;23.38;;;7.00;99.90;;;;;;5077194;28;20037;-70
2022/03/21 08:06:59;;;;;;;37.17;24.08;;;7.10;99.90;;;;;;5077874;28;20072;-74
2022/03/21 08:09:27;;;;;;;39.50;23.45;;;7.30;99.90;;;;;;5061242;28;20289;-73
2022/03/21 08:11:54;;;;;;;38.65;22.63;;;7.40;99.90;;;;;;5078101;28;20093;-73
2022/03/21 08:14:21;;;;;;;34.45;22.65;;;7.50;99.90;;;;;;5060752;28;20036;-72
2022/03/21 08:16:47;;;;;;;36.30;22.95;;;7.60;99.90;;;;;;5078651;28;20067;-72
2022/03/21 08:19:12;;;;;;;32.63;21.92;;;7.80;99.90;;;;;;5078275;28;20024;-73
2022/03/21 08:21:38;;;;;;;32.72;21.40;;;7.90;99.90;;;;;;5061259;28;20131;-73
2022/03/21 08:24:06;;;;;;;33.85;22.20;;;8.00;99.90;;;;;;5076984;28;20033;-72
2022/03/21 08:26:35;;;;;;;34.25;21.80;;;8.10;99.90;;;;;;5077046;28;20044;-72
2022/03/21 08:29:01;;;;;;;34.47;21.52;;;8.20;99.90;;;;;;5060806;28;20037;-72
2022/03/21 08:31:28;;;;;;;29.65;20.42;;;8.20;99.90;;;;;;5077516;28;20037;-73
2022/03/21 08:33:54;;;;;;;31.90;20.65;;;8.30;99.90;;;;;;5077544;28;20024;-73
2022/03/21 08:36:22;;;;;;;31.33;20.67;;;8.50;99.90;;;;;;5060199;28;20036;-72
2022/03/21 08:38:48;;;;;;;34.17;21.33;;;8.60;99.90;;;;;;5076474;28;20067;-71
2022/03/21 08:41:14;;;;;;;29.42;20.38;;;8.70;99.90;;;;;;5076689;28;20028;-73
2022/03/21 08:43:39;;;;;;;30.30;20.08;;;9.00;99.90;;;;;;5059909;28;20032;-72
2022/03/21 08:46:05;;;;;;;36.25;20.38;;;9.10;99.90;;;;;;5060037;28;20404;-72
2022/03/21 08:51:17;;;;;;;27.73;18.30;;;9.40;99.90;;;;;;5077542;28;20034;-72
2022/03/21 08:53:43;;;;;;;27.50;18.27;;;9.50;99.90;;;;;;5077146;28;20049;-73
2022/03/21 08:56:09;;;;;;;24.38;17.52;;;9.70;99.90;;;;;;5060029;28;20068;-73
2022/03/21 08:58:35;;;;;;;27.50;16.85;;;10.00;99.90;;;;;;5043712;28;20312;-73
2022/03/21 09:01:00;;;;;;;24.70;17.35;;;10.20;99.90;;;;;;5059974;28;20066;-73
2022/03/21 09:03:26;;;;;;;24.88;16.10;;;10.30;99.90;;;;;;5059816;28;20050;-72
2022/03/21 09:05:52;;;;;;;25.95;16.58;;;10.30;99.90;;;;;;5076302;28;20036;-73
2022/03/21 09:08:18;;;;;;;23.52;16.58;;;10.30;99.90;;;;;;5059903;28;20097;-72
2022/03/21 09:10:44;;;;;;;26.88;17.05;;;10.30;99.90;;;;;;5077609;28;20028;-72
2022/03/21 09:13:10;;;;;;;28.40;17.50;;;10.50;99.90;;;;;;5076364;28;20036;-72
2022/03/21 09:15:36;;;;;;;26.63;17.23;;;10.60;99.90;;;;;;5076230;28;20025;-74
2022/03/21 09:18:02;;;;;;;27.80;17.13;;;10.60;99.90;;;;;;5060212;28;20132;-73
2022/03/21 09:20:30;;;;;;;28.10;17.30;;;10.60;99.90;;;;;;5077152;28;20119;-73
2022/03/21 09:22:59;;;;;;;24.73;17.10;;;10.70;99.90;;;;;;5059921;28;20403;-74
2022/03/21 09:25:24;;;;;;;22.30;16.23;;;11.00;99.90;;;;;;5076921;28;20029;-72
2022/03/21 09:27:50;;;;;;;23.55;15.80;;;11.20;99.90;;;;;;5060014;28;20037;-73
2022/03/21 09:30:16;;;;;;;26.02;16.20;;;11.10;99.90;;;;;;5077094;28;20040;-74
2022/03/21 09:32:43;;;;;;;26.90;16.55;;;11.10;99.90;;;;;;5059712;28;20029;-74
2022/03/21 09:35:09;;;;;;;25.33;15.63;;;11.20;99.90;;;;;;5076144;28;20301;-75
2022/03/21 09:37:35;;;;;;;23.77;16.02;;;11.30;99.90;;;;;;5076410;28;20293;-74
2022/03/21 09:40:01;;;;;;;22.60;15.95;;;11.50;99.90;;;;;;5076368;28;20041;-73
2022/03/21 09:42:27;;;;;;;21.65;14.68;;;11.60;99.90;;;;;;5059835;28;20323;-73
2022/03/21 09:44:53;;;;;;;22.40;15.18;;;11.60;99.90;;;;;;5076140;28;20047;-72
2022/03/21 09:50:12;;;;;;;26.15;15.82;;;11.60;99.90;;;;;;5076836;28;20041;-73
2022/03/21 09:52:39;;;;;;;28.98;15.65;;;11.70;99.90;;;;;;5079913;28;20021;-72
2022/03/21 09:55:09;;;;;;;27.33;15.85;;;11.90;99.90;;;;;;5063576;28;20142;-73
2022/03/21 09:57:36;;;;;;;21.30;15.57;;;12.10;99.90;;;;;;5063783;28;20025;-71
2022/03/21 10:00:05;;;;;;;23.27;15.27;;;12.30;99.90;;;;;;5080606;28;20335;-72
2022/03/21 10:02:38;;;;;;;22.70;14.80;;;12.30;99.90;;;;;;5081109;28;20447;-73
2022/03/21 10:05:04;;;;;;;24.85;15.43;;;12.40;99.90;;;;;;5063110;28;20032;-72
2022/03/21 10:07:30;;;;;;;21.20;14.95;;;12.50;99.90;;;;;;5079516;28;20411;-72
2022/03/21 10:10:06;;;;;;;21.33;14.48;;;12.70;99.90;;;;;;5063133;28;20310;-71
2022/03/21 10:12:32;;;;;;;22.75;15.60;;;13.10;99.90;;;;;;5079599;28;20043;-74
2022/03/21 10:14:59;;;;;;;24.33;15.13;;;12.90;99.90;;;;;;5063430;28;20044;-73
2022/03/21 10:17:25;;;;;;;20.88;14.48;;;13.20;99.90;;;;;;5063537;28;20035;-73
2022/03/21 10:19:52;;;;;;;22.10;14.55;;;13.50;99.90;;;;;;5081263;28;20036;-72
2022/03/21 10:22:34;;;;;;;19.13;14.10;;;13.60;99.90;;;;;;5080610;28;20055;-71
2022/03/21 10:25:16;;;;;;;20.52;14.55;;;13.60;99.90;;;;;;5048646;28;20044;-71
2022/03/21 10:27:44;;;;;;;23.95;13.93;;;13.90;99.90;;;;;;5063115;28;20074;-72
2022/03/21 10:30:15;;;;;;;24.42;14.45;;;14.20;99.90;;;;;;5079876;28;20021;-71
2022/03/21 10:32:42;;;;;;;20.50;14.35;;;14.40;99.90;;;;;;5063001;28;20083;-71
2022/03/21 10:35:18;;;;;;;21.67;14.13;;;14.70;99.90;;;;;;5079647;28;20326;-73
2022/03/21 10:37:59;;;;;;;19.08;14.18;;;14.60;99.90;;;;;;5080105;28;20118;-73
2022/03/21 10:40:32;;;;;;;18.17;12.93;;;14.60;99.90;;;;;;5080075;28;20343;-73
2022/03/21 10:43:05;;;;;;;17.95;13.70;;;15.00;99.90;;;;;;5080045;28;20304;-72
2022/03/21 10:45:43;;;;;;;20.48;13.85;;;15.50;99.90;;;;;;5080295;28;20392;-72
2022/03/21 10:48:14;;;;;;;18.90;13.77;;;16.60;99.90;;;;;;5079753;28;20028;-71
2022/03/21 10:50:49;;;;;;;20.05;13.90;;;17.10;99.90;;;;;;5079331;28;20077;-71
2022/03/21 10:53:23;;;;;;;19.90;14.73;;;16.90;99.90;;;;;;5079954;28;20035;-71
2022/03/21 10:56:05;;;;;;;15.88;12.50;;;17.50;99.90;;;;;;5079263;28;20420;-71
2022/03/21 10:58:56;;;;;;;16.67;12.98;;;18.90;99.90;;;;;;5079340;28;20039;-71
2022/03/21 11:01:29;;;;;;;20.35;14.60;;;19.50;99.90;;;;;;5078967;28;20047;-70
2022/03/21 11:03:59;;;;;;;21.75;13.25;;;19.30;99.90;;;;;;5079795;28;20036;-71
2022/03/21 11:06:27;;;;;;;18.30;12.90;;;19.80;99.90;;;;;;5078804;28;20304;-71
2022/03/21 11:08:54;;;;;;;19.15;13.00;;;19.90;99.90;;;;;;5062155;28;20025;-72
2022/03/21 11:11:20;;;;;;;17.08;13.23;;;20.60;99.90;;;;;;5045951;28;20112;-73
2022/03/21 11:13:47;;;;;;;19.17;14.18;;;20.10;99.90;;;;;;5078780;28;20032;-71
2022/03/21 11:16:18;;;;;;;20.10;14.40;;;19.80;99.90;;;;;;5079542;28;20028;-71
2022/03/21 11:18:49;;;;;;;19.20;14.88;;;21.00;99.90;;;;;;5045846;28;20155;-70
2022/03/21 11:21:18;;;;;;;19.65;14.02;;;21.50;99.90;;;;;;5078692;28;20043;-71
2022/03/21 11:23:43;;;;;;;17.92;12.68;;;22.00;99.90;;;;;;5061589;28;20125;-72
2022/03/21 11:26:24;;;;;;;17.85;13.50;;;21.90;99.90;;;;;;5078506;28;20040;-72
2022/03/21 11:29:25;;;;;;;15.88;13.23;;;21.80;99.90;;;;;;5079617;28;20029;-73
2022/03/21 11:31:57;;;;;;;14.82;13.05;;;21.70;99.90;;;;;;5078613;28;20025;-72
2022/03/21 11:35:00;;;;;;;17.35;13.82;;;22.70;99.90;;;;;;5078362;28;20430;-71
2022/03/21 11:37:31;;;;;;;17.10;13.40;;;22.70;99.90;;;;;;5078484;28;20028;-71
2022/03/21 11:40:32;;;;;;;19.50;13.60;;;22.70;99.90;;;;;;5078480;28;20041;-71
2022/03/21 11:43:22;;;;;;;18.58;13.65;;;23.00;99.90;;;;;;5061589;28;20119;-72
2022/03/21 11:45:55;;;;;;;21.35;13.98;;;23.20;99.90;;;;;;5078465;28;20083;-74
2022/03/21 11:48:23;;;;;;;20.45;13.70;;;22.70;99.90;;;;;;5079445;28;20052;-72
2022/03/21 11:50:55;;;;;;;16.15;12.85;;;20.90;99.90;;;;;;5079238;28;20033;-72
2022/03/21 11:53:29;;;;;;;16.80;13.40;;;21.20;99.90;;;;;;5078344;28;20035;-72
2022/03/21 11:55:55;;;;;;;24.05;13.77;;;21.80;99.90;;;;;;5078500;28;20296;-72
2022/03/21 11:58:39;;;;;;;16.90;13.07;;;21.90;99.90;;;;;;5061749;28;20028;-72
2022/03/21 12:01:13;;;;;;;18.27;12.75;;;22.70;99.90;;;;;;5078251;28;20277;-72
2022/03/21 12:03:43;;;;;;;21.13;13.48;;;23.60;99.50;;;;;;5079027;28;20315;-73
2022/03/21 12:06:23;;;;;;;21.50;13.52;;;23.00;98.80;;;;;;5062643;28;20366;-73
2022/03/21 12:08:51;;;;;;;15.07;11.70;;;22.90;98.70;;;;;;5079826;28;20028;-73
2022/03/21 12:11:37;;;;;;;18.35;13.57;;;24.20;97.90;;;;;;5077929;28;20074;-73
2022/03/21 12:14:36;;;;;;;16.73;13.25;;;21.60;99.10;;;;;;5078373;28;20040;-73
2022/03/21 12:17:01;;;;;;;17.30;12.90;;;21.30;99.90;;;;;;5077669;28;20045;-74
2022/03/21 12:19:50;;;;;;;16.60;13.60;;;20.80;99.90;;;;;;5078629;28;20400;-72
2022/03/21 12:22:34;;;;;;;20.00;13.32;;;20.90;99.90;;;;;;5078328;28;20036;-72
2022/03/21 12:25:08;;;;;;;17.50;12.15;;;22.20;99.70;;;;;;5078141;28;20036;-72
2022/03/21 12:27:38;;;;;;;18.63;12.68;;;23.50;98.30;;;;;;5045173;28;20032;-72
2022/03/21 12:30:20;;;;;;;18.67;13.38;;;22.90;97.70;;;;;;5078773;28;20077;-72
2022/03/21 12:32:53;;;;;;;19.25;14.07;;;22.60;97.90;;;;;;5077366;28;20032;-72
2022/03/21 12:35:31;;;;;;;18.75;13.35;;;22.20;98.70;;;;;;5077511;28;20124;-72
2022/03/21 12:38:29;;;;;;;22.23;13.63;;;22.30;99.00;;;;;;5077763;28;20040;-72
2022/03/21 12:41:00;;;;;;;19.00;13.77;;;23.00;97.10;;;;;;5077558;28;20044;-71
2022/03/21 12:43:30;;;;;;;20.83;13.27;;;24.40;95.90;;;;;;5077438;28;20043;-72
2022/03/21 12:46:11;;;;;;;18.73;13.05;;;24.60;95.40;;;;;;5060837;28;20036;-72
2022/03/21 12:48:42;;;;;;;15.50;12.77;;;25.80;95.10;;;;;;5076861;28;20068;-72
2022/03/21 12:51:09;;;;;;;16.10;12.13;;;27.40;92.60;;;;;;5077042;28;20028;-72
2022/03/21 12:53:56;;;;;;;17.02;12.93;;;28.90;90.00;;;;;;5077180;28;20016;-72
2022/03/21 12:56:25;;;;;;;16.55;12.48;;;29.00;83.90;;;;;;5060812;28;20040;-71
2022/03/21 12:59:00;;;;;;;16.67;11.68;;;28.50;80.90;;;;;;5077272;28;20021;-72
2022/03/21 13:01:26;;;;;;;16.02;12.90;;;26.90;84.80;;;;;;5076832;28;20037;-72
2022/03/21 13:12:44;;;;;;;12.77;10.23;;;27.60;82.30;;;;;;5076595;28;20053;-73